createdAt,value
2022-08-28T00:03:36.267Z,100296.72
2022-08-28T00:08:40.061Z,100303.44
2022-08-28T00:13:41.951Z,100307.06
2022-08-28T00:18:43.566Z,100307.94
2022-08-28T00:23:50.754Z,100297.97
2022-08-28T00:28:52.295Z,100293.25
2022-08-28T00:33:53.859Z,100294.59
2022-08-28T00:39:00.053Z,100293.47
2022-08-28T00:44:21.894Z,100298.97
2022-08-28T00:49:29.437Z,100289.59
2022-08-28T00:54:35.583Z,100298.72
2022-08-28T00:59:38.307Z,100302.00
2022-08-28T01:04:40.023Z,100309.13
2022-08-28T01:09:44.764Z,100300.03
2022-08-28T01:14:49.715Z,100303.34
2022-08-28T01:19:58.320Z,100322.47
2022-08-28T01:25:03.357Z,100315.38
2022-08-28T01:30:05.395Z,100319.56
2022-08-28T01:35:14.600Z,100316.78
2022-08-28T01:40:22.986Z,100316.84
2022-08-28T01:45:25.775Z,100314.94
2022-08-28T01:50:27.364Z,100318.25
2022-08-28T01:55:29.311Z,100329.31
2022-08-28T02:00:31.105Z,100327.63
2022-08-28T02:05:33.793Z,100326.53
2022-08-28T02:10:37.616Z,100336.50
2022-08-28T02:15:40.748Z,100336.78
2022-08-28T02:20:42.957Z,100327.63
2022-08-28T02:25:44.627Z,100333.94
2022-08-28T02:30:46.266Z,100339.22
2022-08-28T02:35:48.099Z,100333.38
2022-08-28T02:40:49.679Z,100321.97
2022-08-28T02:45:51.238Z,100326.28
2022-08-28T02:50:58.288Z,100323.47
2022-08-28T02:56:01.076Z,100319.50
2022-08-28T03:01:07.013Z,100328.09
2022-08-28T03:06:09.588Z,100318.13
2022-08-28T03:11:12.069Z,100315.97
2022-08-28T03:16:13.763Z,100332.81
2022-08-28T03:21:15.315Z,100334.25
2022-08-28T03:26:20.260Z,100330.94
2022-08-28T03:31:25.172Z,100331.50
2022-08-28T03:36:28.778Z,100333.50
2022-08-28T03:41:31.859Z,100346.78
2022-08-28T03:46:34.485Z,100348.22
2022-08-28T03:51:36.134Z,100348.22
2022-08-28T03:56:41.019Z,100360.97
2022-08-28T04:01:42.599Z,100357.19
2022-08-28T04:06:44.211Z,100358.88
2022-08-28T04:11:45.755Z,100357.22
2022-08-28T04:16:49.198Z,100355.59
2022-08-28T04:21:50.849Z,100364.22
2022-08-28T04:26:54.073Z,100369.53
2022-08-28T04:31:58.207Z,100371.78
2022-08-28T04:36:59.846Z,100381.81
2022-08-28T04:42:01.450Z,100369.91
2022-08-28T04:47:03.017Z,100368.53
2022-08-28T04:52:07.984Z,100369.66
2022-08-28T04:57:09.521Z,100367.44
2022-08-28T05:02:11.284Z,100362.47
2022-08-28T05:07:12.991Z,100364.69
2022-08-28T05:12:17.275Z,100369.97
2022-08-28T05:17:18.840Z,100366.13
2022-08-28T05:22:20.403Z,100367.00
2022-08-28T05:27:23.802Z,100361.72
2022-08-28T05:32:25.338Z,100358.16
2022-08-28T05:37:27.726Z,100366.19
2022-08-28T05:42:30.999Z,100360.94
2022-08-28T05:47:33.451Z,100360.38
2022-08-28T05:52:35.698Z,100358.22
2022-08-28T05:57:37.662Z,100365.66
2022-08-28T06:02:40.801Z,100372.06
2022-08-28T06:07:43.091Z,100370.09
2022-08-28T06:12:44.613Z,100366.47
2022-08-28T06:17:46.393Z,100367.63
2022-08-28T06:22:50.437Z,100367.31
2022-08-28T06:27:51.999Z,100380.88
2022-08-28T06:32:54.717Z,100381.97
2022-08-28T06:37:56.336Z,100383.91
2022-08-28T06:42:57.871Z,100390.22
2022-08-28T06:47:59.492Z,100396.88
2022-08-28T06:53:01.330Z,100397.94
2022-08-28T06:58:03.927Z,100404.28
2022-08-28T07:03:06.285Z,100410.09
2022-08-28T07:08:07.957Z,100411.44
2022-08-28T07:13:09.529Z,100421.94
2022-08-28T07:18:11.250Z,100421.63
2022-08-28T07:23:13.004Z,100425.13
2022-08-28T07:28:14.899Z,100426.47
2022-08-28T07:33:16.536Z,100430.38
2022-08-28T07:38:18.105Z,100433.19
2022-08-28T07:43:38.570Z,100447.06
2022-08-28T07:48:41.432Z,100433.63
2022-08-28T07:53:42.994Z,100446.75
2022-08-28T07:58:45.356Z,100449.97
2022-08-28T08:03:47.284Z,100452.22
2022-08-28T08:08:50.376Z,100464.66
2022-08-28T08:13:54.158Z,100473.06
2022-08-28T08:18:55.791Z,100481.28
2022-08-28T08:23:59.971Z,100482.88
2022-08-28T08:29:02.073Z,100491.88
2022-08-28T08:34:05.697Z,100501.47
2022-08-28T08:39:09.740Z,100499.88
2022-08-28T08:44:33.804Z,100508.34
2022-08-28T08:49:40.364Z,100511.81
2022-08-28T08:54:44.323Z,100511.47
2022-08-28T08:59:46.080Z,100520.72
2022-08-28T09:04:57.087Z,100515.53
2022-08-28T09:09:58.717Z,100526.78
2022-08-28T09:15:09.865Z,100534.56
2022-08-28T09:20:14.924Z,100541.44
2022-08-28T09:25:47.693Z,100528.72
2022-08-28T09:31:03.100Z,100530.84
2022-08-28T09:36:37.902Z,100532.03
2022-08-28T09:42:01.088Z,100524.78
2022-08-28T09:47:02.745Z,100530.63
2022-08-28T09:52:25.014Z,100530.97
2022-08-28T09:57:26.956Z,100528.78
2022-08-28T10:02:44.689Z,100525.19
2022-08-28T10:08:05.393Z,100529.78
2022-08-28T10:13:45.213Z,100531.91
2022-08-28T10:18:56.383Z,100524.78
2022-08-28T10:24:26.662Z,100525.97
2022-08-28T10:29:59.432Z,100518.91
2022-08-28T10:35:29.340Z,100528.47
2022-08-28T10:40:36.042Z,100502.00
2022-08-28T10:45:45.961Z,100498.28
2022-08-28T10:51:00.463Z,100496.88
2022-08-28T10:56:08.403Z,100500.75
2022-08-28T11:01:25.975Z,100500.09
2022-08-28T11:06:42.839Z,100505.63
2022-08-28T11:11:48.674Z,100498.72
2022-08-28T11:16:51.408Z,100510.22
2022-08-28T11:22:03.116Z,100496.75
2022-08-28T11:27:05.158Z,100488.47
2022-08-28T11:32:31.701Z,100499.78
2022-08-28T11:37:44.786Z,100499.47
2022-08-28T11:42:50.117Z,100497.59
2022-08-28T11:47:56.278Z,100487.09
2022-08-28T11:53:21.395Z,100485.94
2022-08-28T11:58:45.197Z,100481.78
2022-08-28T12:04:15.088Z,100489.94
2022-08-28T12:09:38.738Z,100506.13
2022-08-28T12:14:42.868Z,100500.19
2022-08-28T12:20:11.004Z,100478.78
2022-08-28T12:25:37.831Z,100487.03
2022-08-28T12:30:53.294Z,100488.69
2022-08-28T12:36:02.111Z,100486.47
2022-08-28T12:41:03.987Z,100476.16
2022-08-28T12:46:18.891Z,100462.81
2022-08-28T12:51:24.013Z,100472.97
2022-08-28T12:56:29.972Z,100463.69
2022-08-28T13:01:33.840Z,100455.31
2022-08-28T13:06:38.505Z,100455.81
2022-08-28T13:11:46.188Z,100458.13
2022-08-28T13:16:47.900Z,100448.69
2022-08-28T13:22:00.289Z,100445.91
2022-08-28T13:27:17.941Z,100432.41
2022-08-28T13:32:19.694Z,100447.75
2022-08-28T13:37:49.635Z,100438.03
2022-08-28T13:42:57.698Z,100433.97
2022-08-28T13:47:59.553Z,100442.06
2022-08-28T13:53:03.246Z,100442.25
2022-08-28T13:58:04.905Z,100426.72
2022-08-28T14:03:24.953Z,100419.47
2022-08-28T14:08:26.533Z,100411.38
2022-08-28T14:13:28.849Z,100425.91
2022-08-28T14:18:30.439Z,100416.47
2022-08-28T14:23:33.522Z,100415.50
2022-08-28T14:28:35.251Z,100399.00
2022-08-28T14:33:37.143Z,100386.13
2022-08-28T14:38:38.685Z,100377.69
2022-08-28T14:43:41.113Z,100373.41
2022-08-28T14:48:42.685Z,100383.47
2022-08-28T14:53:45.046Z,100390.09
2022-08-28T15:04:48.025Z,100377.72
2022-08-28T15:09:50.172Z,100372.38
2022-08-28T15:14:55.295Z,100376.69
2022-08-28T15:20:00.479Z,100372.25
2022-08-28T15:25:03.219Z,100370.91
